createdAt,value
2023-03-06T00:00:55.132Z,4.97
2023-03-06T00:03:27.793Z,5.60
2023-03-06T00:05:57.325Z,5.00
2023-03-06T00:08:26.208Z,6.17
2023-03-06T00:10:54.703Z,5.43
2023-03-06T00:13:22.953Z,6.30
2023-03-06T00:15:51.552Z,10.27
2023-03-06T00:18:20.065Z,6.30
2023-03-06T00:20:49.702Z,5.47
2023-03-06T00:23:18.019Z,5.63
2023-03-06T00:25:46.846Z,7.37
2023-03-06T00:28:15.803Z,6.93
2023-03-06T00:30:45.911Z,6.43
2023-03-06T00:33:14.140Z,7.17
2023-03-06T00:35:42.936Z,6.63
2023-03-06T00:38:13.736Z,8.97
2023-03-06T00:40:41.968Z,6.73
2023-03-06T00:43:10.303Z,7.60
2023-03-06T00:45:38.709Z,7.03
2023-03-06T00:48:07.457Z,7.77
2023-03-06T00:50:36.233Z,7.73
2023-03-06T00:53:04.486Z,10.93
2023-03-06T00:55:34.073Z,8.60
2023-03-06T00:58:02.375Z,9.93
2023-03-06T01:00:30.690Z,7.57
2023-03-06T01:02:58.906Z,10.03
2023-03-06T01:05:27.309Z,10.33
2023-03-06T01:07:55.716Z,8.77
2023-03-06T01:10:24.058Z,8.07
2023-03-06T01:12:53.658Z,9.20
2023-03-06T01:15:22.209Z,8.50
2023-03-06T01:17:53.576Z,10.73
2023-03-06T01:20:22.509Z,11.37
2023-03-06T01:22:50.758Z,10.33
2023-03-06T01:25:21.602Z,9.63
2023-03-06T01:27:49.837Z,10.60
2023-03-06T01:30:19.764Z,9.37
2023-03-06T01:32:48.132Z,10.67
2023-03-06T01:35:16.608Z,8.10
2023-03-06T01:37:44.819Z,9.17
2023-03-06T01:40:14.096Z,8.30
2023-03-06T01:42:42.658Z,7.60
2023-03-06T01:45:31.705Z,8.00
2023-03-06T01:48:01.355Z,8.70
2023-03-06T01:50:30.376Z,10.73
2023-03-06T01:53:00.209Z,10.97
2023-03-06T01:55:29.310Z,8.13
2023-03-06T01:57:59.181Z,7.63
2023-03-06T02:00:28.701Z,9.37
2023-03-06T02:02:58.422Z,8.47
2023-03-06T02:05:28.468Z,8.63
2023-03-06T02:07:56.993Z,11.27
2023-03-06T02:10:25.273Z,7.77
2023-03-06T02:12:53.870Z,10.13
2023-03-06T02:15:24.050Z,10.33
2023-03-06T02:17:53.467Z,7.60
2023-03-06T02:20:24.061Z,8.90
2023-03-06T02:22:56.887Z,7.87
2023-03-06T02:25:37.006Z,10.07
2023-03-06T02:28:05.566Z,9.63
2023-03-06T02:30:33.898Z,10.10
2023-03-06T02:33:02.176Z,9.83
2023-03-06T02:35:31.174Z,10.70
2023-03-06T02:38:00.754Z,9.83
2023-03-06T02:40:29.147Z,9.73
2023-03-06T02:42:59.716Z,11.77
2023-03-06T02:45:32.228Z,8.47
2023-03-06T02:48:00.430Z,8.43
2023-03-06T02:50:28.793Z,11.80
2023-03-06T02:52:57.236Z,9.73
2023-03-06T02:55:25.566Z,9.07
2023-03-06T02:57:53.804Z,8.10
2023-03-06T03:00:23.613Z,9.53
2023-03-06T03:02:51.849Z,8.47
2023-03-06T03:05:20.121Z,10.37
2023-03-06T03:07:48.381Z,12.57
2023-03-06T03:10:16.903Z,11.03
2023-03-06T03:12:45.778Z,9.90
2023-03-06T03:15:14.082Z,12.30
2023-03-06T03:17:43.896Z,10.27
2023-03-06T03:20:13.972Z,8.97
2023-03-06T03:22:42.468Z,8.53
2023-03-06T03:25:11.196Z,8.60
2023-03-06T03:27:39.642Z,7.63
2023-03-06T03:30:08.471Z,8.63
2023-03-06T03:32:36.740Z,10.03
2023-03-06T03:35:06.914Z,11.20
2023-03-06T03:37:35.708Z,9.77
2023-03-06T03:40:04.971Z,9.53
2023-03-06T03:42:33.213Z,9.03
2023-03-06T03:45:01.454Z,8.37
2023-03-06T03:47:29.777Z,8.43
2023-03-06T03:49:58.043Z,7.37
2023-03-06T03:52:27.678Z,9.60
2023-03-06T03:54:55.921Z,8.13
2023-03-06T03:57:24.249Z,8.83
2023-03-06T03:59:52.468Z,8.83
2023-03-06T04:02:21.679Z,7.83
2023-03-06T04:04:50.143Z,9.50
2023-03-06T04:07:18.391Z,7.03
2023-03-06T04:09:48.394Z,7.03
2023-03-06T04:12:16.688Z,7.43
2023-03-06T04:14:44.928Z,8.87
2023-03-06T04:17:13.258Z,8.83
2023-03-06T04:19:41.604Z,7.63
2023-03-06T04:22:09.937Z,7.87
2023-03-06T04:24:38.154Z,7.77
2023-03-06T04:27:07.924Z,5.80
2023-03-06T04:29:36.193Z,7.57
2023-03-06T04:32:04.469Z,8.37
2023-03-06T04:34:32.762Z,7.77
2023-03-06T04:37:01.018Z,8.70
2023-03-06T04:39:29.266Z,6.63
2023-03-06T04:41:58.463Z,11.10
2023-03-06T04:44:28.215Z,7.40
2023-03-06T04:46:56.513Z,9.23
2023-03-06T04:49:24.760Z,9.67
2023-03-06T04:51:52.968Z,8.03
2023-03-06T04:54:21.186Z,9.43
2023-03-06T04:56:49.414Z,8.80
2023-03-06T04:59:17.711Z,8.27
2023-03-06T05:01:47.620Z,11.77
2023-03-06T05:04:16.027Z,9.07
2023-03-06T05:06:44.249Z,8.40
2023-03-06T05:09:12.537Z,9.47
2023-03-06T05:11:40.840Z,8.47
2023-03-06T05:14:09.040Z,9.00
2023-03-06T05:16:37.353Z,10.23
2023-03-06T05:19:06.968Z,9.43
2023-03-06T05:21:35.382Z,9.50
2023-03-06T05:24:03.651Z,12.27
2023-03-06T05:26:32.002Z,11.37
2023-03-06T05:29:00.212Z,10.53
2023-03-06T05:31:28.494Z,11.30
2023-03-06T05:33:56.758Z,11.20
2023-03-06T05:36:26.510Z,12.00
2023-03-06T05:38:54.976Z,12.27
2023-03-06T05:41:23.172Z,10.77
2023-03-06T05:43:51.497Z,13.83
2023-03-06T05:46:19.888Z,12.20
2023-03-06T05:48:48.322Z,14.10
2023-03-06T05:51:16.690Z,12.60
2023-03-06T05:53:46.376Z,13.43
2023-03-06T05:56:14.872Z,13.40
2023-03-06T05:58:43.209Z,11.43
2023-03-06T06:01:12.262Z,14.70
2023-03-06T06:03:40.710Z,12.43
2023-03-06T06:06:09.883Z,13.03
2023-03-06T06:08:38.164Z,11.53
2023-03-06T06:11:08.037Z,12.20
2023-03-06T06:13:36.311Z,11.97
2023-03-06T06:16:08.303Z,15.10
2023-03-06T06:18:37.320Z,10.87
2023-03-06T06:21:07.533Z,14.23
2023-03-06T06:23:36.167Z,13.07
2023-03-06T06:26:05.216Z,11.73
2023-03-06T06:28:34.834Z,11.70
2023-03-06T06:31:03.115Z,12.60
2023-03-06T06:33:31.341Z,13.40
2023-03-06T06:35:59.616Z,12.90
2023-03-06T06:38:27.932Z,13.13
2023-03-06T06:41:29.149Z,13.93
2023-03-06T06:43:45.755Z,15.80
2023-03-06T06:46:39.928Z,14.63
2023-03-06T06:49:03.054Z,15.03
2023-03-06T06:51:32.573Z,14.40
2023-03-06T06:54:00.921Z,14.97
2023-03-06T06:56:29.575Z,14.43
2023-03-06T06:59:15.712Z,15.97
2023-03-06T07:01:44.784Z,15.43
2023-03-06T07:04:13.921Z,16.37
2023-03-06T07:06:42.575Z,15.10
2023-03-06T07:09:11.100Z,15.27
2023-03-06T07:11:39.620Z,14.83
2023-03-06T07:14:09.266Z,13.77
2023-03-06T07:16:37.552Z,14.53
2023-03-06T07:19:05.835Z,12.10
2023-03-06T07:21:34.171Z,14.70
2023-03-06T07:24:02.688Z,12.10
2023-03-06T07:26:33.515Z,14.40
2023-03-06T07:29:03.601Z,13.63
2023-03-06T07:31:33.882Z,12.53
2023-03-06T07:34:04.779Z,16.33
2023-03-06T07:36:33.373Z,16.00
2023-03-06T07:39:01.945Z,17.30
2023-03-06T07:41:30.278Z,14.03
2023-03-06T07:43:58.520Z,13.70
2023-03-06T07:46:26.875Z,14.53
2023-03-06T07:48:56.538Z,13.37
2023-03-06T07:51:24.793Z,12.47
2023-03-06T07:53:53.077Z,11.53
2023-03-06T07:56:21.361Z,13.10
2023-03-06T07:58:49.624Z,12.07
2023-03-06T08:01:19.702Z,11.27
2023-03-06T08:03:49.891Z,12.23
2023-03-06T08:06:20.814Z,10.93
2023-03-06T08:08:49.692Z,10.93
2023-03-06T08:11:19.078Z,11.43
2023-03-06T08:13:48.776Z,10.63
2023-03-06T08:16:18.284Z,9.83
2023-03-06T08:18:46.796Z,10.00
2023-03-06T08:21:16.069Z,10.87
2023-03-06T08:23:46.463Z,9.43
2023-03-06T08:26:16.017Z,9.83
2023-03-06T08:28:44.486Z,8.63
2023-03-06T08:31:14.240Z,8.20
2023-03-06T08:33:42.605Z,8.70
2023-03-06T08:36:10.934Z,10.00
2023-03-06T08:38:39.155Z,15.80
2023-03-06T08:41:08.900Z,10.57
2023-03-06T08:43:37.249Z,10.70
2023-03-06T08:46:05.753Z,11.10
2023-03-06T08:48:34.143Z,10.87
2023-03-06T08:51:02.416Z,8.37
2023-03-06T08:53:42.566Z,9.83
2023-03-06T08:56:18.057Z,10.30
2023-03-06T08:58:46.359Z,9.73
2023-03-06T09:01:15.672Z,9.83
2023-03-06T09:03:43.971Z,8.27
2023-03-06T09:06:12.380Z,9.67
2023-03-06T09:08:43.170Z,8.33
2023-03-06T09:11:11.544Z,8.83
2023-03-06T09:13:41.286Z,9.00
2023-03-06T09:16:09.891Z,8.80
2023-03-06T09:18:38.736Z,9.90
2023-03-06T09:21:07.174Z,10.50
2023-03-06T09:23:35.945Z,9.53
2023-03-06T09:26:04.642Z,10.70
2023-03-06T09:28:32.924Z,8.07
2023-03-06T09:31:05.546Z,8.53
2023-03-06T09:33:34.324Z,8.90
2023-03-06T09:36:03.868Z,7.03
2023-03-06T09:38:32.111Z,8.20
2023-03-06T09:43:37.475Z,7.63
2023-03-06T09:46:15.456Z,7.07
2023-03-06T09:48:49.096Z,7.10
2023-03-06T09:51:18.697Z,7.80
2023-03-06T09:53:57.800Z,6.30
2023-03-06T09:56:31.051Z,6.17
2023-03-06T09:59:04.822Z,6.60
2023-03-06T10:01:36.029Z,5.10
2023-03-06T10:04:09.938Z,5.37
2023-03-06T10:06:42.980Z,5.37
2023-03-06T10:09:14.395Z,4.10
2023-03-06T10:11:44.496Z,4.67
2023-03-06T10:14:19.033Z,4.10
2023-03-06T10:16:48.817Z,3.20
2023-03-06T10:19:18.710Z,3.20
2023-03-06T10:21:56.830Z,4.00
2023-03-06T10:24:35.374Z,3.60
2023-03-06T10:27:12.200Z,3.90
2023-03-06T10:30:01.237Z,3.50
2023-03-06T10:32:47.596Z,4.00
2023-03-06T10:35:19.752Z,3.67
2023-03-06T10:37:48.372Z,3.23
2023-03-06T10:40:18.214Z,4.07
2023-03-06T10:42:46.442Z,4.27
2023-03-06T10:45:16.316Z,6.17
2023-03-06T10:47:46.388Z,13.40
2023-03-06T10:50:24.853Z,5.03
2023-03-06T10:53:04.414Z,8.97
2023-03-06T10:55:33.684Z,4.77
2023-03-06T10:58:18.423Z,2.90
2023-03-06T11:00:47.278Z,7.60
2023-03-06T11:03:22.291Z,3.33
2023-03-06T11:06:04.712Z,8.90
2023-03-06T11:08:33.360Z,4.90
2023-03-06T11:11:03.084Z,8.80
2023-03-06T11:13:32.460Z,3.67
2023-03-06T11:16:03.165Z,12.63
2023-03-06T11:18:41.194Z,4.60
2023-03-06T11:21:24.297Z,16.67
2023-03-06T11:23:53.839Z,3.30
2023-03-06T11:29:01.413Z,2.10
2023-03-06T11:31:31.499Z,9.87
2023-03-06T11:34:04.963Z,15.63
2023-03-06T11:36:38.328Z,10.63
2023-03-06T11:39:15.577Z,9.47
2023-03-06T11:41:49.273Z,8.30
2023-03-06T11:44:23.110Z,9.63
2023-03-06T11:46:52.725Z,5.13
2023-03-06T11:49:24.540Z,3.17
2023-03-06T11:51:54.842Z,21.37
2023-03-06T11:54:23.168Z,5.20
2023-03-06T11:56:54.625Z,2.17
2023-03-06T11:59:37.624Z,5.07
2023-03-06T12:02:08.073Z,4.70
2023-03-06T12:04:43.240Z,3.67
2023-03-06T12:07:18.161Z,3.03
2023-03-06T12:09:48.200Z,5.03
2023-03-06T12:12:22.270Z,2.83
2023-03-06T12:15:00.598Z,2.40
2023-03-06T12:17:33.800Z,2.33
2023-03-06T12:20:18.023Z,5.03
2023-03-06T12:22:57.520Z,2.30
2023-03-06T12:25:33.781Z,10.70
2023-03-06T12:28:08.366Z,5.30
2023-03-06T12:30:40.692Z,8.00
2023-03-06T12:33:13.934Z,2.23
2023-03-06T12:35:57.820Z,10.60
2023-03-06T12:38:42.790Z,5.23
2023-03-06T12:41:17.376Z,2.23
2023-03-06T12:44:04.933Z,2.27
2023-03-06T12:46:37.417Z,5.70
2023-03-06T12:49:07.112Z,1.43
2023-03-06T12:51:37.577Z,4.33
2023-03-06T12:54:05.883Z,5.97
2023-03-06T12:56:35.263Z,1.53
2023-03-06T12:59:03.517Z,4.80
2023-03-06T13:01:38.639Z,1.40
2023-03-06T13:04:30.851Z,3.57
2023-03-06T13:07:06.941Z,3.70
2023-03-06T13:09:39.652Z,5.93
2023-03-06T13:12:18.785Z,1.77
2023-03-06T13:14:55.188Z,2.70
2023-03-06T13:17:27.598Z,1.60
2023-03-06T13:20:11.193Z,3.27
2023-03-06T13:22:41.978Z,2.07
2023-03-06T13:25:29.097Z,2.23
2023-03-06T13:28:04.914Z,1.70
2023-03-06T13:30:46.404Z,8.13
2023-03-06T13:33:34.261Z,2.20
2023-03-06T13:36:20.964Z,2.83
2023-03-06T13:39:00.490Z,2.73
2023-03-06T13:41:45.669Z,2.17
2023-03-06T13:44:32.779Z,1.73
2023-03-06T13:47:01.961Z,2.10
2023-03-06T13:49:30.899Z,1.77
2023-03-06T13:52:10.489Z,2.27
2023-03-06T13:54:47.354Z,2.43
2023-03-06T13:57:39.687Z,1.60
2023-03-06T14:00:28.676Z,1.33
2023-03-06T14:03:05.894Z,2.07
2023-03-06T14:05:43.032Z,2.77
2023-03-06T14:08:12.296Z,1.50
2023-03-06T14:10:42.504Z,2.83
2023-03-06T14:13:16.601Z,2.93
2023-03-06T14:15:46.099Z,1.60
2023-03-06T14:18:19.976Z,0.97
2023-03-06T14:20:50.568Z,1.10
2023-03-06T14:23:26.827Z,2.73
2023-03-06T14:26:04.801Z,4.03
2023-03-06T14:28:33.810Z,1.43
2023-03-06T14:31:03.542Z,2.60
2023-03-06T14:33:33.131Z,1.53
2023-03-06T14:36:03.314Z,2.13
2023-03-06T14:38:33.925Z,1.37
2023-03-06T14:41:03.902Z,1.43
2023-03-06T14:43:32.371Z,2.77
2023-03-06T14:46:01.437Z,2.00
2023-03-06T14:48:39.562Z,33.03
2023-03-06T14:51:08.635Z,1.50
2023-03-06T14:53:36.897Z,1.73
2023-03-06T14:56:07.106Z,1.50
2023-03-06T14:58:37.922Z,2.10
2023-03-06T15:01:08.260Z,2.00
2023-03-06T15:03:42.425Z,1.67
2023-03-06T15:06:11.994Z,3.40
2023-03-06T15:08:41.826Z,2.37
2023-03-06T15:11:11.461Z,3.03
2023-03-06T15:13:39.702Z,3.47
2023-03-06T15:16:08.617Z,1.57
2023-03-06T15:18:39.007Z,1.60
2023-03-06T15:21:08.887Z,1.90
2023-03-06T15:23:37.937Z,1.70
2023-03-06T15:26:08.293Z,2.13
2023-03-06T15:28:39.574Z,3.70
2023-03-06T15:31:20.115Z,2.23
2023-03-06T15:34:05.111Z,1.70
2023-03-06T15:36:33.992Z,1.47
2023-03-06T15:39:02.471Z,1.83
2023-03-06T15:41:33.421Z,1.60
2023-03-06T15:44:03.837Z,2.23
2023-03-06T15:46:32.092Z,1.57
2023-03-06T15:49:03.134Z,1.77
2023-03-06T15:51:31.666Z,2.63
2023-03-06T15:54:11.325Z,1.43
2023-03-06T15:56:41.425Z,3.27
2023-03-06T15:59:13.296Z,2.53
2023-03-06T16:01:43.302Z,1.97
2023-03-06T16:04:11.573Z,1.57
2023-03-06T16:06:39.816Z,2.90
2023-03-06T16:09:08.160Z,5.13
2023-03-06T16:11:43.808Z,2.63
2023-03-06T16:14:20.088Z,2.97
2023-03-06T16:16:49.270Z,2.67
2023-03-06T16:19:25.919Z,2.00
2023-03-06T16:21:54.920Z,1.83
2023-03-06T16:24:23.121Z,2.20
2023-03-06T16:26:52.541Z,3.73
2023-03-06T16:29:22.983Z,5.20
2023-03-06T16:31:51.558Z,6.70
2023-03-06T16:34:20.003Z,1.80
2023-03-06T16:36:49.388Z,2.00
2023-03-06T16:39:18.295Z,1.70
2023-03-06T16:41:47.159Z,2.50
2023-03-06T16:44:15.478Z,2.83
2023-03-06T16:46:46.372Z,2.67
2023-03-06T16:49:17.460Z,2.90
2023-03-06T16:51:46.262Z,1.97
2023-03-06T16:54:14.629Z,1.70
2023-03-06T16:56:42.927Z,1.97
2023-03-06T16:59:11.347Z,2.00
2023-03-06T17:01:40.024Z,2.70
2023-03-06T17:04:10.051Z,4.63
2023-03-06T17:06:38.507Z,3.03
2023-03-06T17:09:07.035Z,2.67
2023-03-06T17:11:38.396Z,3.80
2023-03-06T17:14:07.171Z,6.87
2023-03-06T17:16:36.949Z,4.20
2023-03-06T17:19:05.300Z,7.50
2023-03-06T17:21:38.230Z,4.20
2023-03-06T17:24:06.920Z,5.07
2023-03-06T17:26:36.513Z,3.77
2023-03-06T17:29:07.005Z,7.63
2023-03-06T17:31:35.495Z,3.97
2023-03-06T17:34:03.721Z,3.70
2023-03-06T17:36:32.428Z,3.30
2023-03-06T17:39:04.950Z,3.77
2023-03-06T17:41:34.721Z,3.33
2023-03-06T17:44:03.142Z,4.20
2023-03-06T17:46:32.418Z,2.97
2023-03-06T17:49:00.905Z,2.43
2023-03-06T17:51:32.246Z,4.27
2023-03-06T17:54:01.995Z,3.33
2023-03-06T17:56:30.284Z,3.97
2023-03-06T17:58:59.648Z,4.83
2023-03-06T18:01:30.326Z,6.30
2023-03-06T18:03:59.353Z,7.83
2023-03-06T18:06:30.454Z,8.57
2023-03-06T18:08:59.034Z,9.10
2023-03-06T18:11:29.020Z,9.13
2023-03-06T18:13:57.987Z,9.00
2023-03-06T18:16:28.488Z,9.67
2023-03-06T18:18:57.687Z,9.10
2023-03-06T18:21:26.428Z,9.20
2023-03-06T18:23:55.024Z,9.57
2023-03-06T18:26:24.292Z,8.67
2023-03-06T18:28:55.442Z,8.67
2023-03-06T18:31:24.555Z,7.83
2023-03-06T18:33:53.419Z,7.13
2023-03-06T18:36:22.759Z,9.20
2023-03-06T18:42:11.419Z,9.27
2023-03-06T18:48:06.401Z,9.60
2023-03-06T18:50:37.781Z,9.27
2023-03-06T18:53:44.537Z,9.47
2023-03-06T18:56:41.922Z,11.07
2023-03-06T19:02:12.129Z,11.77
2023-03-06T19:05:00.523Z,12.73
2023-03-06T19:07:39.122Z,13.93
2023-03-06T19:10:08.056Z,14.00
2023-03-06T19:12:42.798Z,15.53
2023-03-06T19:15:14.648Z,16.97
2023-03-06T19:17:43.055Z,16.73
2023-03-06T19:20:23.117Z,17.03
2023-03-06T19:23:00.144Z,17.27
2023-03-06T19:25:40.654Z,17.13
2023-03-06T19:28:59.495Z,18.97
2023-03-06T19:34:35.817Z,18.20
2023-03-06T19:37:12.504Z,20.57
2023-03-06T19:39:42.328Z,19.00
2023-03-06T19:42:12.879Z,20.63
2023-03-06T19:48:22.857Z,23.70
2023-03-06T19:50:58.592Z,24.67
2023-03-06T19:53:28.350Z,23.60
2023-03-06T19:56:07.488Z,27.03
2023-03-06T19:58:36.203Z,25.37
2023-03-06T20:01:07.321Z,25.27
2023-03-06T20:03:48.373Z,25.80
2023-03-06T20:06:24.801Z,24.07
2023-03-06T20:08:56.313Z,26.17
2023-03-06T20:11:39.382Z,29.93
2023-03-06T20:14:09.225Z,30.10
2023-03-06T20:16:38.489Z,29.63
2023-03-06T20:19:11.801Z,31.67
2023-03-06T20:21:57.413Z,31.50
2023-03-06T20:24:26.024Z,30.47
2023-03-06T20:27:22.138Z,30.97
2023-03-06T20:29:50.578Z,31.20
2023-03-06T20:32:19.191Z,32.20
2023-03-06T20:34:47.693Z,33.97
2023-03-06T20:37:16.052Z,33.73
2023-03-06T20:39:44.919Z,31.53
2023-03-06T20:42:15.412Z,30.53
2023-03-06T20:44:44.132Z,31.83
2023-03-06T20:47:12.554Z,29.13
2023-03-06T20:49:40.932Z,27.87
2023-03-06T20:52:09.252Z,30.80
2023-03-06T20:54:37.661Z,27.43
2023-03-06T20:57:06.490Z,28.10
2023-03-06T20:59:38.237Z,30.07
2023-03-06T21:02:07.332Z,28.70
2023-03-06T21:04:36.245Z,27.10
2023-03-06T21:07:04.588Z,28.93
2023-03-06T21:09:34.546Z,26.80
2023-03-06T21:12:07.488Z,28.93
2023-03-06T21:14:40.581Z,29.60
2023-03-06T21:17:08.965Z,27.53
2023-03-06T21:19:44.608Z,28.93
2023-03-06T21:22:13.785Z,26.23
2023-03-06T21:24:43.367Z,26.67
2023-03-06T21:27:12.281Z,30.83
2023-03-06T21:29:42.424Z,27.93
2023-03-06T21:32:10.925Z,30.10
2023-03-06T21:34:39.507Z,30.77
2023-03-06T21:37:07.967Z,33.37
2023-03-06T21:39:36.517Z,31.83
2023-03-06T21:42:04.984Z,29.67
2023-03-06T21:44:33.399Z,29.90
2023-03-06T21:47:05.972Z,31.77
2023-03-06T21:49:34.456Z,27.40
2023-03-06T21:52:02.796Z,31.00
2023-03-06T21:54:31.121Z,32.87
2023-03-06T21:57:00.297Z,30.23
2023-03-06T21:59:28.699Z,30.83
2023-03-06T22:01:57.083Z,32.13
2023-03-06T22:04:26.961Z,33.60
2023-03-06T22:06:55.391Z,33.47
2023-03-06T22:09:24.837Z,34.80
2023-03-06T22:11:53.206Z,35.63
2023-03-06T22:14:21.563Z,33.97
2023-03-06T22:16:50.006Z,34.97
2023-03-06T22:19:18.694Z,32.10
2023-03-06T22:21:48.491Z,32.80
2023-03-06T22:24:16.869Z,34.70
2023-03-06T22:26:45.190Z,34.37
2023-03-06T22:29:13.511Z,33.63
2023-03-06T22:31:42.118Z,33.10
2023-03-06T22:34:11.330Z,35.50
2023-03-06T22:36:39.653Z,35.23
2023-03-06T22:39:10.265Z,34.67
2023-03-06T22:41:38.693Z,35.17
2023-03-06T22:44:07.085Z,38.53
2023-03-06T22:46:35.641Z,37.60
2023-03-06T22:49:05.041Z,39.70
2023-03-06T22:51:33.434Z,36.20
2023-03-06T22:54:01.892Z,38.83
2023-03-06T22:56:31.927Z,38.43
2023-03-06T22:59:00.249Z,37.23
2023-03-06T23:01:29.662Z,39.53
2023-03-06T23:03:59.129Z,40.87
2023-03-06T23:06:28.319Z,40.17
2023-03-06T23:08:58.191Z,38.13
2023-03-06T23:11:27.781Z,40.90
2023-03-06T23:13:57.784Z,39.80
2023-03-06T23:16:26.417Z,36.27
2023-03-06T23:18:55.056Z,36.37
2023-03-06T23:21:24.284Z,38.83
2023-03-06T23:23:53.591Z,42.17
2023-03-06T23:26:23.114Z,36.37
2023-03-06T23:28:51.802Z,36.30
2023-03-06T23:31:22.559Z,34.07
2023-03-06T23:33:51.180Z,38.50
2023-03-06T23:36:20.111Z,39.97
2023-03-06T23:38:48.514Z,35.47
2023-03-06T23:41:18.112Z,36.53
2023-03-06T23:43:46.775Z,35.80
2023-03-06T23:46:15.463Z,38.13
2023-03-06T23:48:46.104Z,34.40
2023-03-06T23:51:16.100Z,36.20
2023-03-06T23:53:44.960Z,32.07
2023-03-06T23:56:13.795Z,36.00
2023-03-06T23:58:42.489Z,33.70
